CheckWX is a tool to help pilots better visualize weather data.  It is not intended as a substitute for an official pre-flight weather briefing.

01:29:14 UTC

KTTD TAF
Portland-Troutdale Airport
Portland, Oregon, USA
KTTD 232327Z 2400/2424 09007KT P6SM VCSH SCT015 BKN025 OVC060 TEMPO 2400/2403 SCT025 OVC060 FM240600 09009KT 5SM -RA SCT007 OVC015 FM241600 09009KT P6SM -SHRA SCT015 OVC025

Feb-24@
00:00 UTC

Feb-24 @ 00:00 UTC

Feb-24@
06:00 UTC

Feb-24 @ 06:00 UTC

KTTD 232327Z 2400/2424 09007KT P6SM VCSH SCT015 BKN025 OVC060
Wind
  • 090° at 7 KTS
Cloud Levels
  • Scattered at 1,500' AGL
  • Broken at 2,500' AGL
  • Overcast at 6,000' AGL

Feb-24@
00:00 UTC

Feb-24 @ 00:00 UTC

Feb-24@
03:00 UTC

Feb-24 @ 03:00 UTC

TEMPO 2400/2403 SCT025 OVC060

Temporary

Temporary Changes expected for less than half the time period

Cloud Levels
  • Scattered at 2,500' AGL
  • Overcast at 6,000' AGL

Feb-24@
06:00 UTC

Feb-24 @ 06:00 UTC

Feb-24@
16:00 UTC

Feb-24 @ 16:00 UTC

FM240600 09009KT 5SM -RA SCT007 OVC015

From

From Standard forecast or significant change

Wind
  • 090° at 9 KTS
Conditions
Light Rain
Cloud Levels
  • Scattered at 700' AGL
  • Overcast at 1,500' AGL

Feb-24@
16:00 UTC

Feb-24 @ 16:00 UTC

Feb-25@
00:00 UTC

Feb-25 @ 00:00 UTC

FM241600 09009KT P6SM -SHRA SCT015 OVC025

From

From Standard forecast or significant change

Wind
  • 090° at 9 KTS
Conditions
Light Rain
Cloud Levels
  • Scattered at 1,500' AGL
  • Overcast at 2,500' AGL